Time;durP1;ratioP1;P1;durP2;ratioP2;P2;SDS_P1;SDS_P2;PMS_P1;PMS_P2;Temp;Humidity;BMP_temperature;BMP_pressure;BME280_temperature;BME280_humidity;BME280_pressure;Samples;Min_cycle;Max_cycle;Signal;HPM_P1;HPM_P2
2024/03/17 00:00:32;;;;;;;0.22;0.22;;;;;;;;;;5114914;28;20053;-63
2024/03/17 00:02:57;;;;;;;1.20;0.55;;;;;;;;;;5115103;28;20027;-62
2024/03/17 00:05:22;;;;;;;0.73;0.73;;;;;;;;;;5115205;28;20016;-62
2024/03/17 00:07:48;;;;;;;0.13;0.13;;;;;;;;;;5115156;28;20301;-62
2024/03/17 00:10:15;;;;;;;0.90;0.38;;;;;;;;;;5112684;28;20369;-62
2024/03/17 00:12:40;;;;;;;0.60;0.50;;;;;;;;;;5112870;28;20034;-63
2024/03/17 00:15:06;;;;;;;0.32;0.32;;;;;;;;;;5113497;28;20024;-62
2024/03/17 00:17:31;;;;;;;0.20;0.17;;;;;;;;;;5113118;28;20395;-63
2024/03/17 00:19:57;;;;;;;0.53;0.53;;;;;;;;;;5113154;28;20020;-62
2024/03/17 00:22:22;;;;;;;0.43;0.43;;;;;;;;;;5112863;28;20355;-64
2024/03/17 00:24:47;;;;;;;0.10;0.10;;;;;;;;;;5112140;28;20036;-62
2024/03/17 00:27:13;;;;;;;0.67;0.67;;;;;;;;;;5112993;28;20020;-63
2024/03/17 00:29:38;;;;;;;0.35;0.35;;;;;;;;;;5112228;28;20019;-63
2024/03/17 00:32:04;;;;;;;4.38;0.35;;;;;;;;;;5112903;28;20024;-63
2024/03/17 00:34:30;;;;;;;1.33;0.52;;;;;;;;;;5113038;28;20055;-63
2024/03/17 00:36:55;;;;;;;1.57;1.47;;;;;;;;;;5112134;28;20046;-62
2024/03/17 00:39:20;;;;;;;0.20;0.20;;;;;;;;;;5112261;28;20312;-63
2024/03/17 00:41:45;;;;;;;0.52;0.52;;;;;;;;;;5112933;28;20015;-62
2024/03/17 00:44:10;;;;;;;0.73;0.73;;;;;;;;;;5112419;28;20403;-62
2024/03/17 00:46:36;;;;;;;0.60;0.50;;;;;;;;;;5112653;28;20659;-62
2024/03/17 00:49:01;;;;;;;0.10;0.10;;;;;;;;;;5112321;28;20030;-63
2024/03/17 00:51:26;;;;;;;0.20;0.20;;;;;;;;;;5111408;28;20101;-63
2024/03/17 00:53:51;;;;;;;0.65;0.65;;;;;;;;;;5112511;28;20256;-63
2024/03/17 00:56:17;;;;;;;0.30;0.30;;;;;;;;;;5112478;28;20046;-63
2024/03/17 00:58:44;;;;;;;0.03;0.03;;;;;;;;;;5112451;28;20047;-63
2024/03/17 01:01:09;;;;;;;1.42;0.95;;;;;;;;;;5112628;28;20035;-62
2024/03/17 01:03:34;;;;;;;0.25;0.25;;;;;;;;;;5111577;28;20317;-62
2024/03/17 01:06:02;;;;;;;0.80;0.80;;;;;;;;;;5112479;28;20095;-63
2024/03/17 01:08:28;;;;;;;0.47;0.47;;;;;;;;;;5112207;28;20015;-62
2024/03/17 01:10:53;;;;;;;0.00;0.00;;;;;;;;;;5093975;28;20020;-62
2024/03/17 01:13:18;;;;;;;0.13;0.13;;;;;;;;;;5092738;28;20310;-62
2024/03/17 01:15:44;;;;;;;0.55;0.55;;;;;;;;;;5092669;28;20024;-62
2024/03/17 01:18:09;;;;;;;0.40;0.40;;;;;;;;;;5091887;28;20745;-62
2024/03/17 01:20:35;;;;;;;0.10;0.10;;;;;;;;;;5092624;28;20028;-63
2024/03/17 01:23:00;;;;;;;1.60;1.50;;;;;;;;;;5092136;28;20028;-62
2024/03/17 01:25:26;;;;;;;0.70;0.70;;;;;;;;;;5092436;28;20030;-62
2024/03/17 01:27:52;;;;;;;0.10;0.10;;;;;;;;;;5093557;28;20027;-62
2024/03/17 01:30:17;;;;;;;0.10;0.10;;;;;;;;;;5093283;28;20480;-63
2024/03/17 01:32:42;;;;;;;0.67;0.67;;;;;;;;;;5093147;28;20073;-62
2024/03/17 01:35:08;;;;;;;0.13;0.13;;;;;;;;;;5093265;28;20268;-62
2024/03/17 01:37:33;;;;;;;1.02;0.93;;;;;;;;;;5102881;28;20286;-62
2024/03/17 01:39:58;;;;;;;0.10;0.10;;;;;;;;;;5113198;28;20027;-63
2024/03/17 01:42:24;;;;;;;0.10;0.10;;;;;;;;;;5112708;28;20058;-63
2024/03/17 01:44:50;;;;;;;0.10;0.10;;;;;;;;;;5085041;28;20103;-62
2024/03/17 01:47:16;;;;;;;0.10;0.10;;;;;;;;;;5093394;28;20043;-62
2024/03/17 01:49:41;;;;;;;2.55;0.82;;;;;;;;;;5093054;28;20456;-62
2024/03/17 01:52:06;;;;;;;0.10;0.10;;;;;;;;;;5108260;28;20031;-62
2024/03/17 01:54:31;;;;;;;0.10;0.10;;;;;;;;;;5112811;28;20263;-62
2024/03/17 01:56:57;;;;;;;0.52;0.52;;;;;;;;;;5113042;28;20034;-62
2024/03/17 01:59:22;;;;;;;1.58;0.73;;;;;;;;;;5112919;28;20028;-62
2024/03/17 02:01:47;;;;;;;0.67;0.67;;;;;;;;;;5101683;28;20353;-63
2024/03/17 02:04:12;;;;;;;0.20;0.20;;;;;;;;;;5097136;28;20240;-62
2024/03/17 02:06:39;;;;;;;0.63;0.57;;;;;;;;;;5097073;28;20070;-63
2024/03/17 02:09:04;;;;;;;0.40;0.40;;;;;;;;;;5097276;28;20284;-63
2024/03/17 02:11:29;;;;;;;0.30;0.30;;;;;;;;;;5097011;28;20055;-62
2024/03/17 02:13:55;;;;;;;0.20;0.20;;;;;;;;;;5096952;28;20024;-63
2024/03/17 02:16:20;;;;;;;0.60;0.60;;;;;;;;;;5097215;28;20435;-62
2024/03/17 02:18:46;;;;;;;0.45;0.30;;;;;;;;;;5097125;28;20043;-62
2024/03/17 02:21:12;;;;;;;0.10;0.10;;;;;;;;;;5113305;28;20024;-63
2024/03/17 02:23:37;;;;;;;0.20;0.20;;;;;;;;;;5116101;28;20030;-62
2024/03/17 02:26:03;;;;;;;0.40;0.33;;;;;;;;;;5114897;28;20027;-62
2024/03/17 02:28:28;;;;;;;0.10;0.10;;;;;;;;;;5115932;28;20026;-62
2024/03/17 02:30:54;;;;;;;0.20;0.20;;;;;;;;;;5116088;28;20099;-63
2024/03/17 02:33:22;;;;;;;0.43;0.43;;;;;;;;;;5116168;28;20027;-62
2024/03/17 02:35:48;;;;;;;0.10;0.10;;;;;;;;;;5114156;28;20510;-62
2024/03/17 02:39:31;;;;;;;0.10;0.10;;;;;;;;;;5116207;28;20034;-62
2024/03/17 02:41:00;;;;;;;0.10;0.10;;;;;;;;;;5109427;28;20028;-63
2024/03/17 02:43:26;;;;;;;0.30;0.30;;;;;;;;;;5096284;28;20039;-63
2024/03/17 02:45:51;;;;;;;0.10;0.10;;;;;;;;;;5096364;28;20015;-62
2024/03/17 02:48:16;;;;;;;0.17;0.17;;;;;;;;;;5097396;28;20365;-63
2024/03/17 02:50:41;;;;;;;0.10;0.10;;;;;;;;;;5096119;28;20023;-62
2024/03/17 02:53:06;;;;;;;0.20;0.20;;;;;;;;;;5096203;28;20062;-63
2024/03/17 02:55:32;;;;;;;0.40;0.40;;;;;;;;;;5096300;28;20295;-62
2024/03/17 02:57:57;;;;;;;0.90;0.50;;;;;;;;;;5096113;28;20046;-62
2024/03/17 03:00:22;;;;;;;0.90;0.65;;;;;;;;;;5095981;28;20260;-63
2024/03/17 03:02:47;;;;;;;0.30;0.30;;;;;;;;;;5095840;28;20016;-62
2024/03/17 03:05:12;;;;;;;0.60;0.60;;;;;;;;;;5095904;28;20024;-63
2024/03/17 03:07:38;;;;;;;0.10;0.10;;;;;;;;;;5095879;28;20020;-63
2024/03/17 03:10:03;;;;;;;0.32;0.32;;;;;;;;;;5095752;28;20252;-62
2024/03/17 03:12:28;;;;;;;0.30;0.30;;;;;;;;;;5109566;28;20215;-62
2024/03/17 03:14:54;;;;;;;0.17;0.17;;;;;;;;;;5114950;28;20020;-62
2024/03/17 03:17:33;;;;;;;0.10;0.10;;;;;;;;;;5115607;28;20263;-63
2024/03/17 03:19:58;;;;;;;0.17;0.17;;;;;;;;;;5115202;28;20271;-63
2024/03/17 03:22:23;;;;;;;0.20;0.20;;;;;;;;;;5113861;28;20023;-62
2024/03/17 03:24:51;;;;;;;0.28;0.28;;;;;;;;;;5097072;28;20252;-63
2024/03/17 03:27:17;;;;;;;1.05;0.65;;;;;;;;;;5115393;28;20111;-62
2024/03/17 03:29:42;;;;;;;0.30;0.30;;;;;;;;;;5115538;28;20096;-62
2024/03/17 03:32:07;;;;;;;0.30;0.30;;;;;;;;;;5115154;28;20046;-63
2024/03/17 03:34:33;;;;;;;0.80;0.80;;;;;;;;;;5114995;28;20038;-62
2024/03/17 03:36:58;;;;;;;0.40;0.40;;;;;;;;;;5114895;28;20050;-63
2024/03/17 03:39:26;;;;;;;1.17;0.97;;;;;;;;;;5115132;28;20019;-63
2024/03/17 03:41:52;;;;;;;0.05;0.05;;;;;;;;;;5112452;28;20114;-62
2024/03/17 03:44:18;;;;;;;0.28;0.28;;;;;;;;;;5105744;28;20107;-62
2024/03/17 03:46:44;;;;;;;0.40;0.40;;;;;;;;;;5104434;28;20554;-63
2024/03/17 03:49:09;;;;;;;0.10;0.10;;;;;;;;;;5098188;28;20032;-62
2024/03/17 03:51:35;;;;;;;0.10;0.10;;;;;;;;;;5095041;28;20027;-62
2024/03/17 03:54:00;;;;;;;0.10;0.10;;;;;;;;;;5113060;28;20267;-62
2024/03/17 03:56:25;;;;;;;0.10;0.10;;;;;;;;;;5114532;28;20023;-62
2024/03/17 03:58:51;;;;;;;0.30;0.30;;;;;;;;;;5114936;28;20047;-62
2024/03/17 04:01:21;;;;;;;0.30;0.30;;;;;;;;;;5112873;28;20039;-62
2024/03/17 04:03:46;;;;;;;0.20;0.20;;;;;;;;;;5114767;28;20774;-62
2024/03/17 04:06:13;;;;;;;0.20;0.20;;;;;;;;;;5097802;28;20020;-63
2024/03/17 04:08:41;;;;;;;0.20;0.20;;;;;;;;;;5114369;28;20252;-62
2024/03/17 04:11:07;;;;;;;0.20;0.20;;;;;;;;;;5114806;28;20025;-63
2024/03/17 04:13:35;;;;;;;2.38;1.38;;;;;;;;;;5115281;28;20387;-62
2024/03/17 04:16:05;;;;;;;0.15;0.15;;;;;;;;;;5112874;28;20027;-62
2024/03/17 04:18:30;;;;;;;0.22;0.22;;;;;;;;;;5114192;28;20031;-62
2024/03/17 04:20:56;;;;;;;0.20;0.20;;;;;;;;;;5114234;28;20364;-63
2024/03/17 04:23:22;;;;;;;3.60;1.33;;;;;;;;;;5114342;28;20023;-62
2024/03/17 04:25:47;;;;;;;0.32;0.32;;;;;;;;;;5112860;28;20405;-63
2024/03/17 04:28:14;;;;;;;0.10;0.10;;;;;;;;;;5114025;28;20026;-62
2024/03/17 04:30:39;;;;;;;0.10;0.10;;;;;;;;;;5105222;28;20020;-62
2024/03/17 04:33:06;;;;;;;0.68;0.68;;;;;;;;;;5113288;28;20053;-62
2024/03/17 04:35:31;;;;;;;0.10;0.10;;;;;;;;;;5113975;28;20023;-66
2024/03/17 04:37:57;;;;;;;0.20;0.20;;;;;;;;;;5106719;28;20134;-66
2024/03/17 04:40:22;;;;;;;0.10;0.10;;;;;;;;;;5094256;28;20314;-66
2024/03/17 04:42:47;;;;;;;0.10;0.10;;;;;;;;;;5094214;28;20051;-66
2024/03/17 04:45:13;;;;;;;0.10;0.10;;;;;;;;;;5109954;28;20078;-66
2024/03/17 04:47:38;;;;;;;0.30;0.30;;;;;;;;;;5113777;28;20024;-66
2024/03/17 04:50:04;;;;;;;0.10;0.10;;;;;;;;;;5113704;28;20409;-66
2024/03/17 04:52:29;;;;;;;0.30;0.30;;;;;;;;;;5113607;28;20268;-65
2024/03/17 04:54:54;;;;;;;0.07;0.07;;;;;;;;;;5095169;28;20023;-66
2024/03/17 04:57:19;;;;;;;0.10;0.10;;;;;;;;;;5093799;28;20256;-66
2024/03/17 04:59:44;;;;;;;0.08;0.08;;;;;;;;;;5110538;28;20030;-66
2024/03/17 05:02:10;;;;;;;0.10;0.10;;;;;;;;;;5113428;28;20488;-66
2024/03/17 05:04:35;;;;;;;0.20;0.20;;;;;;;;;;5113747;28;20668;-66
2024/03/17 05:07:00;;;;;;;0.10;0.10;;;;;;;;;;5112096;28;20015;-66
2024/03/17 05:09:25;;;;;;;0.10;0.10;;;;;;;;;;5093868;28;20252;-66
2024/03/17 05:11:53;;;;;;;0.20;0.20;;;;;;;;;;5108970;28;20444;-66
2024/03/17 05:14:21;;;;;;;0.45;0.43;;;;;;;;;;5094280;28;20778;-66
2024/03/17 05:16:50;;;;;;;0.10;0.10;;;;;;;;;;5093461;28;20016;-67
2024/03/17 05:19:17;;;;;;;0.75;0.35;;;;;;;;;;5093403;28;20384;-66
2024/03/17 05:21:42;;;;;;;0.10;0.10;;;;;;;;;;5093570;28;20024;-66
2024/03/17 05:24:07;;;;;;;0.13;0.13;;;;;;;;;;5100402;28;20380;-66
2024/03/17 05:26:32;;;;;;;0.20;0.20;;;;;;;;;;5094490;28;20024;-66
2024/03/17 05:28:58;;;;;;;0.10;0.10;;;;;;;;;;5106631;28;20156;-66
2024/03/17 05:31:23;;;;;;;0.10;0.10;;;;;;;;;;5113066;28;20020;-66
2024/03/17 05:33:48;;;;;;;1.10;0.65;;;;;;;;;;5110548;28;20035;-66
2024/03/17 05:36:14;;;;;;;0.10;0.10;;;;;;;;;;5092861;28;20067;-66
2024/03/17 05:38:39;;;;;;;0.35;0.35;;;;;;;;;;5101596;28;20024;-66
2024/03/17 05:41:05;;;;;;;0.33;0.33;;;;;;;;;;5091860;28;20106;-66
2024/03/17 05:43:37;;;;;;;0.10;0.10;;;;;;;;;;5092242;28;20281;-66
2024/03/17 05:46:03;;;;;;;;;;;;;;;;;;5109410;28;20050;-62
2024/03/17 05:48:28;;;;;;;0.10;0.10;;;;;;;;;;5092265;28;19951;-62
2024/03/17 05:50:53;;;;;;;1.67;0.50;;;;;;;;;;5092018;28;20031;-62
2024/03/17 05:53:19;;;;;;;0.10;0.10;;;;;;;;;;5082207;28;20035;-62
2024/03/17 05:55:45;;;;;;;0.52;0.47;;;;;;;;;;5091392;28;20257;-62
2024/03/17 05:58:10;;;;;;;0.10;0.10;;;;;;;;;;5099976;28;20016;-63
2024/03/17 06:00:36;;;;;;;0.20;0.20;;;;;;;;;;5112039;28;20244;-62
2024/03/17 06:03:01;;;;;;;0.20;0.20;;;;;;;;;;5111599;28;20076;-62
2024/03/17 06:05:27;;;;;;;1.45;0.50;;;;;;;;;;5106504;28;20107;-62
2024/03/17 06:07:53;;;;;;;0.10;0.10;;;;;;;;;;5092319;28;20145;-62
2024/03/17 06:10:18;;;;;;;0.10;0.10;;;;;;;;;;5092970;28;20480;-62
2024/03/17 06:12:43;;;;;;;0.70;0.30;;;;;;;;;;5092927;28;20107;-62
2024/03/17 06:15:08;;;;;;;0.33;0.33;;;;;;;;;;5101203;28;20031;-63
2024/03/17 06:17:34;;;;;;;0.13;0.13;;;;;;;;;;5101649;28;20027;-63
2024/03/17 06:20:01;;;;;;;0.10;0.10;;;;;;;;;;5098528;28;20111;-62
2024/03/17 06:22:27;;;;;;;0.32;0.15;;;;;;;;;;5095131;28;20436;-62
2024/03/17 06:24:52;;;;;;;0.20;0.20;;;;;;;;;;5092818;28;20023;-62
2024/03/17 06:27:17;;;;;;;0.20;0.20;;;;;;;;;;5099941;28;20031;-62
2024/03/17 06:29:42;;;;;;;0.10;0.10;;;;;;;;;;5112295;28;20042;-63
2024/03/17 06:32:08;;;;;;;0.10;0.10;;;;;;;;;;5112616;28;20027;-63
2024/03/17 06:34:33;;;;;;;0.15;0.15;;;;;;;;;;5105225;28;20035;-63
2024/03/17 06:37:00;;;;;;;0.10;0.10;;;;;;;;;;5092374;28;20032;-63
2024/03/17 06:39:25;;;;;;;0.10;0.10;;;;;;;;;;5092666;28;20063;-63
2024/03/17 06:41:50;;;;;;;1.50;0.87;;;;;;;;;;5092605;28;20054;-63
2024/03/17 06:44:15;;;;;;;1.23;1.17;;;;;;;;;;5095246;28;20248;-63
2024/03/17 06:46:41;;;;;;;0.20;0.20;;;;;;;;;;5112426;28;20489;-63
2024/03/17 06:49:06;;;;;;;0.17;0.17;;;;;;;;;;5105721;28;20032;-63
2024/03/17 06:51:31;;;;;;;0.10;0.10;;;;;;;;;;5096111;28;20027;-63
2024/03/17 06:53:56;;;;;;;0.17;0.17;;;;;;;;;;5096210;28;20036;-63
2024/03/17 06:56:21;;;;;;;0.10;0.10;;;;;;;;;;5096215;28;20024;-66
2024/03/17 06:58:47;;;;;;;0.20;0.20;;;;;;;;;;5114912;28;20820;-67
2024/03/17 07:01:12;;;;;;;0.20;0.17;;;;;;;;;;5115847;28;20282;-66
2024/03/17 07:03:37;;;;;;;0.73;0.40;;;;;;;;;;5107119;28;20020;-66
2024/03/17 07:06:03;;;;;;;0.13;0.13;;;;;;;;;;5096185;28;20016;-66
2024/03/17 07:08:29;;;;;;;0.55;0.52;;;;;;;;;;5095417;28;20141;-66
2024/03/17 07:10:58;;;;;;;0.10;0.10;;;;;;;;;;5095431;28;20052;-72
2024/03/17 07:13:23;;;;;;;0.10;0.10;;;;;;;;;;5106966;28;20030;-71
2024/03/17 07:15:49;;;;;;;1.13;0.97;;;;;;;;;;5114519;28;20091;-71
2024/03/17 07:18:14;;;;;;;0.10;0.10;;;;;;;;;;5104162;28;20264;-71
2024/03/17 07:20:39;;;;;;;0.47;0.47;;;;;;;;;;5099520;28;20510;-72
2024/03/17 07:23:05;;;;;;;0.10;0.10;;;;;;;;;;5114239;28;20028;-71
2024/03/17 07:25:30;;;;;;;0.10;0.10;;;;;;;;;;5112029;28;20442;-71
2024/03/17 07:27:55;;;;;;;0.10;0.10;;;;;;;;;;5099398;28;20020;-72
2024/03/17 07:30:20;;;;;;;0.30;0.30;;;;;;;;;;5096633;28;20043;-71
2024/03/17 07:32:45;;;;;;;0.27;0.27;;;;;;;;;;5098196;28;20016;-70
2024/03/17 07:35:11;;;;;;;0.20;0.20;;;;;;;;;;5094191;28;20593;-71
2024/03/17 07:37:36;;;;;;;0.43;0.40;;;;;;;;;;5099347;28;20042;-71
2024/03/17 07:40:03;;;;;;;0.10;0.10;;;;;;;;;;5107823;28;20027;-71
2024/03/17 07:42:28;;;;;;;0.10;0.10;;;;;;;;;;5112499;28;20039;-71
2024/03/17 07:44:54;;;;;;;0.27;0.27;;;;;;;;;;5100372;28;20020;-72
2024/03/17 07:47:19;;;;;;;0.30;0.30;;;;;;;;;;5102402;28;20028;-70
2024/03/17 07:49:46;;;;;;;0.10;0.10;;;;;;;;;;5095072;28;20048;-73
2024/03/17 07:52:11;;;;;;;0.20;0.20;;;;;;;;;;5094971;28;20465;-73
2024/03/17 07:54:37;;;;;;;1.03;0.37;;;;;;;;;;5095023;28;20028;-73
2024/03/17 07:57:02;;;;;;;0.32;0.32;;;;;;;;;;5096041;28;20028;-73
2024/03/17 07:59:28;;;;;;;4.38;1.85;;;;;;;;;;5094546;28;20020;-66
2024/03/17 08:01:54;;;;;;;0.45;0.45;;;;;;;;;;5095017;28;20482;-66
2024/03/17 08:04:19;;;;;;;1.40;0.80;;;;;;;;;;5095995;28;20064;-66
2024/03/17 08:06:44;;;;;;;0.20;0.20;;;;;;;;;;5095056;28;20072;-66
2024/03/17 08:09:09;;;;;;;1.10;1.00;;;;;;;;;;5094667;28;20310;-66
2024/03/17 08:11:35;;;;;;;1.48;1.00;;;;;;;;;;5108609;28;20635;-66
2024/03/17 08:14:01;;;;;;;0.00;0.00;;;;;;;;;;5095970;28;20534;-66
2024/03/17 08:16:28;;;;;;;0.35;0.35;;;;;;;;;;5094844;28;20027;-66
2024/03/17 08:18:53;;;;;;;0.35;0.35;;;;;;;;;;5094437;28;20053;-66
2024/03/17 08:21:18;;;;;;;0.40;0.40;;;;;;;;;;5095615;28;20024;-66
2024/03/17 08:23:46;;;;;;;0.57;0.50;;;;;;;;;;5107833;28;20388;-66
2024/03/17 08:26:11;;;;;;;0.30;0.30;;;;;;;;;;5097467;28;20028;-66
2024/03/17 08:28:36;;;;;;;0.20;0.20;;;;;;;;;;5095504;28;20463;-66
2024/03/17 08:31:02;;;;;;;0.47;0.47;;;;;;;;;;5094305;28;20656;-66
2024/03/17 08:33:27;;;;;;;0.20;0.20;;;;;;;;;;5094402;28;20543;-67
2024/03/17 08:35:56;;;;;;;0.17;0.17;;;;;;;;;;5094132;28;20388;-66
2024/03/17 08:38:23;;;;;;;0.20;0.20;;;;;;;;;;5093857;28;20122;-66
2024/03/17 08:40:49;;;;;;;0.40;0.40;;;;;;;;;;5110528;28;20024;-66
2024/03/17 08:43:14;;;;;;;0.20;0.20;;;;;;;;;;5099254;28;20031;-66
2024/03/17 08:45:39;;;;;;;0.30;0.30;;;;;;;;;;5113857;28;20020;-66
2024/03/17 08:48:05;;;;;;;0.20;0.20;;;;;;;;;;5113467;28;20024;-66
2024/03/17 08:50:33;;;;;;;0.52;0.52;;;;;;;;;;5112599;28;20472;-66
2024/03/17 08:52:58;;;;;;;0.45;0.45;;;;;;;;;;5112523;28;20020;-76
2024/03/17 08:55:24;;;;;;;0.30;0.30;;;;;;;;;;5100984;28;20024;-78
2024/03/17 08:57:49;;;;;;;0.70;0.70;;;;;;;;;;5107449;28;20368;-78
2024/03/17 09:00:14;;;;;;;0.40;0.40;;;;;;;;;;5106532;28;20619;-77
2024/03/17 09:02:41;;;;;;;0.20;0.20;;;;;;;;;;5084078;28;20034;-77
2024/03/17 09:05:06;;;;;;;0.65;0.52;;;;;;;;;;5080423;28;20468;-77
2024/03/17 09:07:32;;;;;;;0.45;0.45;;;;;;;;;;5103850;28;20022;-76
2024/03/17 09:09:57;;;;;;;0.10;0.10;;;;;;;;;;5096530;28;20040;-76
2024/03/17 09:12:22;;;;;;;1.15;0.80;;;;;;;;;;5105947;28;20024;-76
2024/03/17 09:14:47;;;;;;;0.60;0.60;;;;;;;;;;5110391;28;20023;-78
2024/03/17 09:17:13;;;;;;;0.28;0.28;;;;;;;;;;5103612;28;20020;-75
2024/03/17 09:19:38;;;;;;;0.70;0.60;;;;;;;;;;5099020;28;20368;-76
2024/03/17 09:22:04;;;;;;;0.70;0.67;;;;;;;;;;5109953;28;20274;-76
2024/03/17 09:24:29;;;;;;;0.47;0.47;;;;;;;;;;5093580;28;20016;-77
2024/03/17 09:26:54;;;;;;;1.07;0.40;;;;;;;;;;5100781;28;20455;-77
2024/03/17 09:29:20;;;;;;;0.43;0.33;;;;;;;;;;5094775;28;20537;-77
2024/03/17 09:31:45;;;;;;;0.23;0.23;;;;;;;;;;5097632;28;20011;-67
2024/03/17 09:34:10;;;;;;;0.60;0.60;;;;;;;;;;5113030;28;20762;-67
2024/03/17 09:36:35;;;;;;;0.13;0.13;;;;;;;;;;5112701;28;20082;-67
2024/03/17 09:39:03;;;;;;;0.10;0.10;;;;;;;;;;5111659;28;20110;-66
2024/03/17 09:41:29;;;;;;;0.52;0.43;;;;;;;;;;5113346;28;20046;-67
2024/03/17 09:43:55;;;;;;;0.30;0.30;;;;;;;;;;5111792;28;20463;-67
2024/03/17 09:46:22;;;;;;;0.32;0.32;;;;;;;;;;5113563;28;20020;-67
2024/03/17 09:48:48;;;;;;;0.38;0.38;;;;;;;;;;5113886;28;20023;-67
2024/03/17 09:51:25;;;;;;;0.70;0.40;;;;;;;;;;5113853;28;20387;-67
2024/03/17 09:53:51;;;;;;;0.55;0.52;;;;;;;;;;5113868;28;20028;-67
2024/03/17 09:56:18;;;;;;;1.15;1.00;;;;;;;;;;5109922;28;20378;-66
2024/03/17 09:58:44;;;;;;;0.95;0.47;;;;;;;;;;5113009;28;20482;-67
2024/03/17 10:01:09;;;;;;;1.95;0.82;;;;;;;;;;5112857;28;20019;-67
2024/03/17 10:03:42;;;;;;;0.28;0.28;;;;;;;;;;5095642;28;20074;-66
2024/03/17 10:06:09;;;;;;;0.20;0.20;;;;;;;;;;5093296;28;20363;-67
2024/03/17 10:08:39;;;;;;;0.75;0.50;;;;;;;;;;5093272;28;20024;-67
2024/03/17 10:11:05;;;;;;;0.95;0.57;;;;;;;;;;5112602;28;20025;-67
2024/03/17 10:13:30;;;;;;;1.13;0.80;;;;;;;;;;5112804;28;20042;-67
2024/03/17 10:15:55;;;;;;;0.20;0.20;;;;;;;;;;5097070;28;20044;-67
2024/03/17 10:18:24;;;;;;;0.20;0.20;;;;;;;;;;5096439;28;20068;-67
2024/03/17 10:20:54;;;;;;;0.90;0.55;;;;;;;;;;5113003;28;20028;-67
2024/03/17 10:23:20;;;;;;;0.32;0.32;;;;;;;;;;5112669;28;20032;-67
2024/03/17 10:25:45;;;;;;;0.00;0.00;;;;;;;;;;5101985;28;20048;-63
2024/03/17 10:28:11;;;;;;;0.93;0.60;;;;;;;;;;5116532;28;20307;-62
2024/03/17 10:30:37;;;;;;;0.30;0.30;;;;;;;;;;5113956;28;20047;-62
2024/03/17 10:33:02;;;;;;;0.65;0.52;;;;;;;;;;5116290;28;20190;-62
2024/03/17 10:35:31;;;;;;;0.10;0.10;;;;;;;;;;5115977;28;20039;-63
2024/03/17 10:37:57;;;;;;;0.15;0.15;;;;;;;;;;5112578;28;20047;-62
2024/03/17 10:40:23;;;;;;;0.20;0.20;;;;;;;;;;5096674;28;20035;-62
2024/03/17 10:42:49;;;;;;;0.52;0.30;;;;;;;;;;5098792;28;20051;-63
2024/03/17 10:45:15;;;;;;;0.10;0.10;;;;;;;;;;5096617;28;20515;-62
2024/03/17 10:47:43;;;;;;;0.38;0.38;;;;;;;;;;5096232;28;20061;-62
2024/03/17 10:50:14;;;;;;;0.20;0.20;;;;;;;;;;5095938;28;20077;-63
2024/03/17 10:52:41;;;;;;;0.35;0.30;;;;;;;;;;5111745;28;20019;-62
2024/03/17 10:55:08;;;;;;;0.47;0.47;;;;;;;;;;5096187;28;20028;-62
2024/03/17 10:57:34;;;;;;;0.10;0.10;;;;;;;;;;5106967;28;20140;-62
2024/03/17 10:59:59;;;;;;;0.40;0.40;;;;;;;;;;5114455;28;20467;-62
2024/03/17 11:02:27;;;;;;;0.08;0.08;;;;;;;;;;5115749;28;20038;-62
2024/03/17 11:04:56;;;;;;;0.55;0.50;;;;;;;;;;5112767;28;20476;-62
2024/03/17 11:07:22;;;;;;;0.20;0.20;;;;;;;;;;5097109;28;20047;-62
2024/03/17 11:09:48;;;;;;;0.20;0.20;;;;;;;;;;5097078;28;20112;-62
2024/03/17 11:12:31;;;;;;;0.00;0.00;;;;;;;;;;5115722;28;20015;-62
2024/03/17 11:15:22;;;;;;;0.10;0.10;;;;;;;;;;5097987;28;20024;-63
2024/03/17 11:17:47;;;;;;;0.52;0.45;;;;;;;;;;5096833;28;20414;-62
2024/03/17 11:20:23;;;;;;;0.22;0.22;;;;;;;;;;5095557;28;20020;-62
2024/03/17 11:22:56;;;;;;;0.32;0.13;;;;;;;;;;5095634;28;20069;-62
2024/03/17 11:25:30;;;;;;;0.85;0.32;;;;;;;;;;5103525;28;20024;-63
2024/03/17 11:27:59;;;;;;;0.17;0.17;;;;;;;;;;5110265;28;20026;-62
2024/03/17 11:30:43;;;;;;;0.15;0.15;;;;;;;;;;5115277;28;20391;-62
2024/03/17 11:33:27;;;;;;;0.20;0.20;;;;;;;;;;5115397;28;20059;-62
2024/03/17 11:36:12;;;;;;;0.13;0.13;;;;;;;;;;5113889;28;20041;-62
2024/03/17 11:38:53;;;;;;;0.22;0.22;;;;;;;;;;5114137;28;20126;-63
2024/03/17 11:41:43;;;;;;;0.13;0.13;;;;;;;;;;5095255;28;20494;-62
2024/03/17 11:44:21;;;;;;;0.20;0.20;;;;;;;;;;5113316;28;20032;-63
2024/03/17 11:46:58;;;;;;;0.75;0.43;;;;;;;;;;5115863;28;20051;-62
2024/03/17 11:49:49;;;;;;;0.20;0.20;;;;;;;;;;5115828;28;20486;-62
2024/03/17 11:52:15;;;;;;;0.38;0.38;;;;;;;;;;5110511;28;20395;-62
2024/03/17 11:54:44;;;;;;;0.10;0.10;;;;;;;;;;5106919;28;20057;-62
2024/03/17 11:57:10;;;;;;;0.45;0.30;;;;;;;;;;5095843;28;20099;-62
2024/03/17 11:59:37;;;;;;;0.35;0.35;;;;;;;;;;5114422;28;20077;-62
2024/03/17 12:02:09;;;;;;;0.10;0.10;;;;;;;;;;5114602;28;20026;-62
2024/03/17 12:04:38;;;;;;;0.00;0.00;;;;;;;;;;5114652;28;20045;-62
2024/03/17 12:07:08;;;;;;;0.30;0.30;;;;;;;;;;5114280;28;20356;-62
2024/03/17 12:09:34;;;;;;;0.45;0.45;;;;;;;;;;5112834;28;20024;-62
2024/03/17 12:11:59;;;;;;;0.50;0.50;;;;;;;;;;5114782;28;20023;-62
2024/03/17 12:14:25;;;;;;;0.03;0.03;;;;;;;;;;5114496;28;20024;-63
2024/03/17 12:16:54;;;;;;;0.00;0.00;;;;;;;;;;5094986;28;20024;-62
2024/03/17 12:19:20;;;;;;;0.10;0.10;;;;;;;;;;5095903;28;20024;-62
2024/03/17 12:21:47;;;;;;;0.10;0.10;;;;;;;;;;5102920;28;20015;-62
2024/03/17 12:24:14;;;;;;;0.10;0.10;;;;;;;;;;5102420;28;20055;-62
2024/03/17 12:26:39;;;;;;;0.00;0.00;;;;;;;;;;5095522;28;20482;-62
2024/03/17 12:29:05;;;;;;;2.08;0.40;;;;;;;;;;5094323;28;20102;-62
2024/03/17 12:31:30;;;;;;;0.00;0.00;;;;;;;;;;5094328;28;20511;-63
2024/03/17 12:33:55;;;;;;;0.10;0.10;;;;;;;;;;5094200;28;20027;-62
2024/03/17 12:36:20;;;;;;;0.20;0.20;;;;;;;;;;5095334;28;20413;-62
2024/03/17 12:38:46;;;;;;;0.10;0.10;;;;;;;;;;5107125;28;20059;-62
2024/03/17 12:41:17;;;;;;;0.15;0.15;;;;;;;;;;5113869;28;20030;-63
2024/03/17 12:43:54;;;;;;;0.00;0.00;;;;;;;;;;5113792;28;20041;-62
2024/03/17 12:46:19;;;;;;;0.30;0.30;;;;;;;;;;5098138;28;20032;-67
2024/03/17 12:48:44;;;;;;;0.00;0.00;;;;;;;;;;5103411;28;20080;-66
2024/03/17 12:51:14;;;;;;;0.27;0.27;;;;;;;;;;5113724;28;20091;-67
2024/03/17 12:53:39;;;;;;;0.38;0.38;;;;;;;;;;5099784;28;20089;-66
2024/03/17 13:01:32;;;;;;;0.08;0.08;;;;;;;;;;5093825;28;20495;-67
2024/03/17 13:04:04;;;;;;;0.10;0.10;;;;;;;;;;5093698;28;20028;-66
2024/03/17 13:06:29;;;;;;;0.10;0.10;;;;;;;;;;5096016;28;20480;-67
2024/03/17 13:08:55;;;;;;;0.20;0.20;;;;;;;;;;5107892;28;20070;-67
2024/03/17 13:11:20;;;;;;;0.47;0.30;;;;;;;;;;5093630;28;20024;-66
2024/03/17 13:13:45;;;;;;;0.10;0.10;;;;;;;;;;5093593;28;20071;-66
2024/03/17 13:16:13;;;;;;;0.10;0.10;;;;;;;;;;5108124;28;20502;-67
2024/03/17 13:18:38;;;;;;;0.40;0.40;;;;;;;;;;5113209;28;20256;-67
2024/03/17 13:21:03;;;;;;;0.03;0.03;;;;;;;;;;5109187;28;20373;-67
2024/03/17 13:23:29;;;;;;;0.10;0.10;;;;;;;;;;5093677;28;20490;-66
2024/03/17 13:25:55;;;;;;;0.10;0.10;;;;;;;;;;5096046;28;20527;-77
2024/03/17 13:28:20;;;;;;;0.20;0.13;;;;;;;;;;5113372;28;20050;-79
2024/03/17 13:30:47;;;;;;;0.10;0.10;;;;;;;;;;5096550;28;20276;-70
2024/03/17 13:33:13;;;;;;;0.40;0.32;;;;;;;;;;5102002;28;20039;-73
2024/03/17 13:35:39;;;;;;;0.20;0.15;;;;;;;;;;5109160;28;20020;-74
2024/03/17 13:38:06;;;;;;;0.47;0.47;;;;;;;;;;5093026;28;20093;-74
2024/03/17 13:40:31;;;;;;;0.22;0.22;;;;;;;;;;5091241;28;20024;-73
2024/03/17 13:42:57;;;;;;;0.38;0.28;;;;;;;;;;5085589;28;20036;-73
2024/03/17 13:45:24;;;;;;;0.43;0.43;;;;;;;;;;5086146;28;20020;-73
2024/03/17 13:47:55;;;;;;;0.17;0.17;;;;;;;;;;5089115;28;20030;-73
2024/03/17 13:50:20;;;;;;;0.13;0.13;;;;;;;;;;5091824;28;20027;-72
2024/03/17 13:52:45;;;;;;;0.10;0.10;;;;;;;;;;5092282;28;20028;-73
2024/03/17 13:55:13;;;;;;;0.00;0.00;;;;;;;;;;5092648;28;20109;-74
2024/03/17 13:57:45;;;;;;;0.10;0.10;;;;;;;;;;5092043;28;20103;-74
2024/03/17 14:00:15;;;;;;;0.20;0.20;;;;;;;;;;5092910;28;20472;-74
2024/03/17 14:02:40;;;;;;;1.00;0.45;;;;;;;;;;5093633;28;20392;-73
2024/03/17 14:05:07;;;;;;;0.10;0.10;;;;;;;;;;5085633;28;20027;-74
2024/03/17 14:07:32;;;;;;;0.17;0.17;;;;;;;;;;5091508;28;20340;-74
2024/03/17 14:09:58;;;;;;;0.20;0.20;;;;;;;;;;5088303;28;20087;-73
2024/03/17 14:12:26;;;;;;;0.60;0.37;;;;;;;;;;5086617;28;20275;-72
2024/03/17 14:14:51;;;;;;;0.03;0.03;;;;;;;;;;5088433;28;20166;-74
2024/03/17 14:17:16;;;;;;;0.10;0.10;;;;;;;;;;5096024;28;20512;-73
2024/03/17 14:19:41;;;;;;;0.03;0.03;;;;;;;;;;5096237;28;20065;-74
2024/03/17 14:22:07;;;;;;;0.13;0.13;;;;;;;;;;5095159;28;20260;-74
2024/03/17 14:24:32;;;;;;;0.93;0.43;;;;;;;;;;5094390;28;20532;-73
2024/03/17 14:26:57;;;;;;;0.40;0.40;;;;;;;;;;5091827;28;20033;-73
2024/03/17 14:29:22;;;;;;;0.00;0.00;;;;;;;;;;5087209;28;20028;-73
2024/03/17 14:31:47;;;;;;;0.40;0.30;;;;;;;;;;5086106;28;20020;-74
2024/03/17 14:34:13;;;;;;;0.00;0.00;;;;;;;;;;5093385;28;20026;-73
2024/03/17 14:36:38;;;;;;;0.00;0.00;;;;;;;;;;5093767;28;20257;-74
2024/03/17 14:39:03;;;;;;;0.00;0.00;;;;;;;;;;5087485;28;20148;-73
2024/03/17 14:41:29;;;;;;;0.00;0.00;;;;;;;;;;5082807;28;20288;-73
2024/03/17 14:43:54;;;;;;;0.15;0.15;;;;;;;;;;5081052;28;20277;-75